الصفحة الرئيسية
METAR-TAF:

METAR-TAF

مطار :

مطار هاربين الدولي

هاربين, جمهورية الصين الشعبية

دائرة عرض: 45-45N, خط طول: 126-46E, ارتفاع: 143 متر

مراقبة الطقس الحالي

تاريخ ووقت الإصدار 15 دقيقة قبل الساعة 00:00UTC
ريح 8 عقدة من الجنوب
درجة الحرارة 6°درجة مئوية
الرطوبة 65%
ضغط 1021 hPa
الرؤية: 8000 متر

METAR: ZYHB 210000Z 19004MPS 8000 NSC 06/M00 Q1021 NOSIG

زمن: 08:15 (00:15 UTC)

توقعات

تاريخ ووقت الإصدار 4ساعات و 58 دقيقة قبل الساعة 19:17UTC
التوقعات صالحة من21 الساعة 00 UTC إلى 21 الساعة 24 UTC
ريح 8 عقدة من الجنوب
الرؤية: 5000 متر
غيوم قليلة على ارتفاع 3300 قدم
دخان

TAF: ZYHB 201917Z 2100/2124 18004MPS 5000 FU FEW033 TX17/2106Z TN05/2121Z

أرصاد الطقس والتوقعات من أكثر من 4000 مطار (تقارير الطقس للمطار METAR والتنبؤ بالطقس بالمطارTAF).

المحطات المتاحة هي النقط الصفراء والحمراء على الخريطة.

حرك المؤشر فوق النقطة لمعرفة اسم المحطة.

ثم انقر لمعرفة أرصاد وتوقعات الطقس.

لتغيير الخارطة: اضغط على الأزرار الخضراء مع رمز الصليب الأسود للتكبير. على الزر الأخضر مع شرطة للتصغير، أو على الأسهم الخضراء للخرائط المجاورة.


METAR-TAF: